createdAt,value
2023-03-04T00:01:53.287Z,20.73
2023-03-04T00:05:55.329Z,21.55
2023-03-04T00:09:57.397Z,21.08
2023-03-04T00:13:59.500Z,102.72
2023-03-04T00:18:01.507Z,24.20
2023-03-04T00:22:04.569Z,20.63
2023-03-04T00:26:09.456Z,21.20
2023-03-04T00:30:12.142Z,20.40
2023-03-04T00:34:14.194Z,21.20
2023-03-04T00:38:16.233Z,20.42
2023-03-04T00:42:18.301Z,21.08
2023-03-04T00:46:20.402Z,20.80
2023-03-04T00:50:22.460Z,22.15
2023-03-04T00:54:24.529Z,21.02
2023-03-04T00:58:26.526Z,20.55
2023-03-04T01:02:28.667Z,19.83
2023-03-04T01:06:30.762Z,20.40
2023-03-04T01:10:33.128Z,18.90
2023-03-04T01:14:35.312Z,18.27
2023-03-04T01:18:37.367Z,17.88
2023-03-04T01:22:39.470Z,18.20
2023-03-04T01:26:41.689Z,18.40
2023-03-04T01:30:43.738Z,17.08
2023-03-04T01:34:45.828Z,18.08
2023-03-04T01:38:47.896Z,17.52
2023-03-04T01:42:49.959Z,16.92
2023-03-04T01:46:55.607Z,18.02
2023-03-04T01:51:03.130Z,18.70
2023-03-04T01:55:18.650Z,13.23
2023-03-04T01:59:26.143Z,16.88
2023-03-04T02:03:28.321Z,17.77
2023-03-04T02:07:30.347Z,18.10
2023-03-04T02:11:33.338Z,17.70
2023-03-04T02:15:35.477Z,16.30
2023-03-04T02:19:50.908Z,16.95
2023-03-04T02:24:15.412Z,16.35
2023-03-04T02:28:17.581Z,17.48
2023-03-04T02:32:20.158Z,16.05
2023-03-04T02:36:23.275Z,17.10
2023-03-04T02:40:30.735Z,17.10
2023-03-04T02:44:37.361Z,16.92
2023-03-04T02:48:39.815Z,16.80
2023-03-04T02:52:41.932Z,16.67
2023-03-04T02:56:52.862Z,16.65
2023-03-04T03:00:57.100Z,16.80
2023-03-04T03:05:00.769Z,17.25
2023-03-04T03:09:03.871Z,17.05
2023-03-04T03:13:06.037Z,16.88
2023-03-04T03:17:08.530Z,16.65
2023-03-04T03:21:10.602Z,16.85
2023-03-04T03:25:15.543Z,17.30
2023-03-04T03:29:17.582Z,16.50
2023-03-04T03:33:19.628Z,17.48
2023-03-04T03:37:21.759Z,16.73
2023-03-04T03:41:23.774Z,17.45
2023-03-04T03:45:25.875Z,18.20
2023-03-04T03:49:28.167Z,17.52
2023-03-04T03:53:30.161Z,17.80
2023-03-04T03:57:32.144Z,19.20
2023-03-04T04:01:34.215Z,18.65
2023-03-04T04:05:36.253Z,18.85
2023-03-04T04:09:38.252Z,17.13
2023-03-04T04:13:40.265Z,18.00
2023-03-04T04:17:42.261Z,18.50
2023-03-04T04:21:44.409Z,18.08
2023-03-04T04:25:46.515Z,17.35
2023-03-04T04:29:48.492Z,34.25
2023-03-04T04:33:50.506Z,18.35
2023-03-04T04:37:52.485Z,18.23
2023-03-04T04:41:54.503Z,18.15
2023-03-04T04:46:00.298Z,18.25
2023-03-04T04:50:03.218Z,18.80
2023-03-04T04:54:06.277Z,17.77
2023-03-04T04:58:08.228Z,18.00
2023-03-04T05:02:10.253Z,17.58
2023-03-04T05:06:13.116Z,17.48
2023-03-04T05:10:15.595Z,17.23
2023-03-04T05:14:17.716Z,16.23
2023-03-04T05:18:21.540Z,17.63
2023-03-04T05:22:23.556Z,16.75
2023-03-04T05:26:25.561Z,16.85
2023-03-04T05:30:28.081Z,17.25
2023-03-04T05:34:30.075Z,16.58
2023-03-04T05:38:33.083Z,16.45
2023-03-04T05:42:35.077Z,16.52
2023-03-04T05:46:37.118Z,15.63
2023-03-04T05:50:39.226Z,15.70
2023-03-04T05:54:41.222Z,14.32
2023-03-04T05:58:44.404Z,14.93
2023-03-04T06:02:46.763Z,15.27
2023-03-04T06:06:48.816Z,15.05
2023-03-04T06:10:53.740Z,14.27
2023-03-04T06:14:55.736Z,13.43
2023-03-04T06:18:57.923Z,13.27
2023-03-04T06:22:59.939Z,13.93
2023-03-04T06:27:02.093Z,13.93
2023-03-04T06:31:04.276Z,13.45
2023-03-04T06:35:06.779Z,13.48
2023-03-04T06:39:09.417Z,14.00
2023-03-04T06:43:11.424Z,13.50
2023-03-04T06:47:13.447Z,13.75
2023-03-04T06:51:16.121Z,14.02
2023-03-04T06:55:18.190Z,13.20
2023-03-04T06:59:20.194Z,13.88
2023-03-04T07:03:22.419Z,13.07
2023-03-04T07:07:26.314Z,12.63
2023-03-04T07:11:28.302Z,12.55
2023-03-04T07:15:30.774Z,12.77
2023-03-04T07:19:32.838Z,13.68
2023-03-04T07:23:35.472Z,12.98
2023-03-04T07:27:38.680Z,12.38
2023-03-04T07:31:40.776Z,12.50
2023-03-04T07:35:42.897Z,12.23
2023-03-04T07:39:44.975Z,13.18
2023-03-04T07:43:47.521Z,11.70
2023-03-04T07:47:49.790Z,11.55
2023-03-04T07:51:51.748Z,12.07
2023-03-04T07:55:53.738Z,10.80
2023-03-04T07:59:56.208Z,10.52
2023-03-04T08:03:58.765Z,11.48
2023-03-04T08:08:00.837Z,10.98
2023-03-04T08:12:02.939Z,10.70
2023-03-04T08:16:05.518Z,10.65
2023-03-04T08:20:07.980Z,12.00
2023-03-04T08:24:11.564Z,15.20
2023-03-04T08:28:14.354Z,12.13
2023-03-04T08:32:16.540Z,12.75
2023-03-04T08:36:18.972Z,9.88
2023-03-04T08:40:21.164Z,10.10
2023-03-04T08:44:25.729Z,10.85
2023-03-04T08:48:28.745Z,11.00
2023-03-04T08:52:31.030Z,10.40
2023-03-04T08:56:33.103Z,9.75
2023-03-04T09:00:38.053Z,9.82
2023-03-04T09:04:40.163Z,9.95
2023-03-04T09:08:42.861Z,8.60
2023-03-04T09:12:44.931Z,8.18
2023-03-04T09:16:46.941Z,7.75
2023-03-04T09:20:49.451Z,7.63
2023-03-04T09:24:51.563Z,7.80
2023-03-04T09:28:57.082Z,7.90
2023-03-04T09:32:59.043Z,7.93
2023-03-04T09:37:01.173Z,7.50
2023-03-04T09:41:07.069Z,6.95
2023-03-04T09:45:16.156Z,13.30
2023-03-04T09:49:20.748Z,9.50
2023-03-04T09:53:29.413Z,7.57
2023-03-04T09:58:02.944Z,11.80
2023-03-04T10:02:20.893Z,9.82
2023-03-04T10:06:23.244Z,6.28
2023-03-04T10:10:31.368Z,6.20
2023-03-04T10:14:51.206Z,7.00
2023-03-04T10:18:55.930Z,5.95
2023-03-04T10:23:10.895Z,6.43
2023-03-04T10:27:18.136Z,6.82
2023-03-04T10:35:32.059Z,5.32
2023-03-04T10:39:39.929Z,5.93
2023-03-04T10:43:45.228Z,5.20
2023-03-04T10:47:54.361Z,5.10
2023-03-04T10:52:18.838Z,4.95
2023-03-04T10:56:36.306Z,4.68
2023-03-04T11:04:40.850Z,4.40
2023-03-04T11:08:43.316Z,4.45
2023-03-04T11:13:02.878Z,3.83
2023-03-04T11:17:28.860Z,4.10
2023-03-04T11:21:40.042Z,3.63
2023-03-04T11:25:47.665Z,3.55
2023-03-04T11:30:03.504Z,3.35
2023-03-04T11:34:27.279Z,2.92
2023-03-04T11:38:36.565Z,2.80
2023-03-04T11:42:59.791Z,2.90
2023-03-04T11:47:17.890Z,2.75
2023-03-04T11:51:43.136Z,2.40
2023-03-04T11:56:04.278Z,2.63
2023-03-04T12:00:12.409Z,2.40
2023-03-04T12:04:33.674Z,2.38
2023-03-04T12:09:22.395Z,2.38
2023-03-04T12:13:42.374Z,2.10
2023-03-04T12:18:08.739Z,2.20
2023-03-04T12:22:22.329Z,2.05
2023-03-04T12:26:45.659Z,1.88
2023-03-04T12:31:09.704Z,1.80
2023-03-04T12:35:18.446Z,1.60
2023-03-04T12:39:59.923Z,3.30
2023-03-04T12:44:16.928Z,5.00
2023-03-04T12:48:39.716Z,2.15
2023-03-04T12:53:05.754Z,2.38
2023-03-04T12:57:14.563Z,2.75
2023-03-04T13:01:23.662Z,3.20
2023-03-04T13:05:43.755Z,2.95
2023-03-04T13:10:04.428Z,3.30
2023-03-04T13:14:18.130Z,2.75
2023-03-04T13:18:20.068Z,2.72
2023-03-04T13:22:45.010Z,2.70
2023-03-04T13:26:47.233Z,3.03
2023-03-04T13:30:52.304Z,9.00
2023-03-04T13:34:54.518Z,7.38
2023-03-04T13:39:16.018Z,3.60
2023-03-04T13:43:25.441Z,3.67
2023-03-04T13:47:35.107Z,3.65
2023-03-04T13:51:45.925Z,3.70
2023-03-04T13:56:05.590Z,3.42
2023-03-04T14:00:12.411Z,3.78
2023-03-04T14:04:35.619Z,4.13
2023-03-04T14:08:37.638Z,3.83
2023-03-04T14:12:54.129Z,3.90
2023-03-04T14:16:57.829Z,4.45
2023-03-04T14:21:01.335Z,3.75
2023-03-04T14:25:18.703Z,4.70
2023-03-04T14:29:26.688Z,4.05
2023-03-04T14:33:30.338Z,9.18
2023-03-04T14:37:49.680Z,10.38
2023-03-04T14:41:55.636Z,10.98
2023-03-04T14:46:01.244Z,11.02
2023-03-04T14:50:13.318Z,4.25
2023-03-04T14:54:38.137Z,3.38
2023-03-04T14:58:53.534Z,3.17
2023-03-04T15:03:01.807Z,2.63
2023-03-04T15:07:04.188Z,2.63
2023-03-04T15:11:07.551Z,2.30
2023-03-04T15:15:45.134Z,2.70
2023-03-04T15:19:58.486Z,3.00
2023-03-04T15:24:03.583Z,3.30
2023-03-04T15:28:12.451Z,3.30
2023-03-04T15:32:15.241Z,3.20
2023-03-04T15:36:20.226Z,3.00
2023-03-04T15:40:34.314Z,2.85
2023-03-04T15:44:36.305Z,3.15
2023-03-04T15:48:38.265Z,2.90
2023-03-04T15:52:40.631Z,2.60
2023-03-04T15:56:42.869Z,3.50
2023-03-04T16:00:44.857Z,3.72
2023-03-04T16:04:46.994Z,4.20
2023-03-04T16:08:50.993Z,4.72
2023-03-04T16:12:53.996Z,4.82
2023-03-04T16:16:56.020Z,4.40
2023-03-04T16:20:58.988Z,5.82
2023-03-04T16:25:01.008Z,6.95
2023-03-04T16:29:03.284Z,9.30
2023-03-04T16:33:05.357Z,9.77
2023-03-04T16:37:14.878Z,6.93
2023-03-04T16:41:20.241Z,6.65
2023-03-04T16:45:32.481Z,7.35
2023-03-04T16:49:34.548Z,7.68
2023-03-04T16:53:38.866Z,8.60
2023-03-04T16:57:40.866Z,8.57
2023-03-04T17:01:43.620Z,8.90
2023-03-04T17:05:47.644Z,8.88
2023-03-04T17:09:50.439Z,9.30
2023-03-04T17:13:52.448Z,9.35
2023-03-04T17:17:54.462Z,10.27
2023-03-04T17:21:58.020Z,9.27
2023-03-04T17:26:00.185Z,9.77
2023-03-04T17:30:03.718Z,9.32
2023-03-04T17:34:05.788Z,9.27
2023-03-04T17:38:08.311Z,10.80
2023-03-04T17:42:10.471Z,9.18
2023-03-04T17:46:14.685Z,9.75
2023-03-04T17:50:16.957Z,8.32
2023-03-04T17:54:19.422Z,7.88
2023-03-04T17:58:22.324Z,8.32
2023-03-04T18:02:24.377Z,8.10
2023-03-04T18:06:26.398Z,8.93
2023-03-04T18:10:28.405Z,9.75
2023-03-04T18:14:30.430Z,9.07
2023-03-04T18:18:32.455Z,8.55
2023-03-04T18:22:34.452Z,8.70
2023-03-04T18:26:36.558Z,8.13
2023-03-04T18:30:38.576Z,7.82
2023-03-04T18:34:40.600Z,8.48
2023-03-04T18:38:43.078Z,8.80
2023-03-04T18:42:45.217Z,8.95
2023-03-04T18:46:50.455Z,8.40
2023-03-04T18:50:53.822Z,8.75
2023-03-04T18:54:55.835Z,11.40
2023-03-04T18:58:59.254Z,10.95
2023-03-04T19:03:07.216Z,9.60
2023-03-04T19:07:09.225Z,9.57
2023-03-04T19:11:11.189Z,9.90
2023-03-04T19:15:14.189Z,24.05
2023-03-04T19:19:16.202Z,10.07
2023-03-04T19:23:18.749Z,10.80
2023-03-04T19:27:21.033Z,10.90
2023-03-04T19:31:23.137Z,12.05
2023-03-04T19:35:25.332Z,11.55
2023-03-04T19:39:27.397Z,10.77
2023-03-04T19:43:29.397Z,10.18
2023-03-04T19:47:31.455Z,9.98
2023-03-04T19:51:33.535Z,10.57
2023-03-04T19:55:38.712Z,10.85
2023-03-04T19:59:40.705Z,10.20
2023-03-04T20:03:42.727Z,10.45
2023-03-04T20:07:44.784Z,10.80
2023-03-04T20:11:57.692Z,10.20
2023-03-04T20:16:00.732Z,11.45
2023-03-04T20:20:03.579Z,10.18
2023-03-04T20:24:05.766Z,9.70
2023-03-04T20:28:07.766Z,9.50
2023-03-04T20:32:09.963Z,11.45
2023-03-04T20:36:12.051Z,10.77
2023-03-04T20:40:14.167Z,11.15
2023-03-04T20:44:16.146Z,10.95
2023-03-04T20:48:18.163Z,10.43
2023-03-04T20:52:20.131Z,10.07
2023-03-04T20:56:22.812Z,11.43
2023-03-04T21:00:25.343Z,10.65
2023-03-04T21:04:27.608Z,11.27
2023-03-04T21:08:29.696Z,10.63
2023-03-04T21:12:31.707Z,12.40
2023-03-04T21:16:33.700Z,11.20
2023-03-04T21:20:35.688Z,15.20
2023-03-04T21:24:39.398Z,11.75
2023-03-04T21:28:41.879Z,13.27
2023-03-04T21:32:43.955Z,13.95
2023-03-04T21:36:46.160Z,12.32
2023-03-04T21:40:48.281Z,12.07
2023-03-04T21:44:51.658Z,11.60
2023-03-04T21:48:53.880Z,11.45
2023-03-04T21:52:55.861Z,11.80
2023-03-04T21:56:57.991Z,11.98
2023-03-04T22:01:00.098Z,10.90
2023-03-04T22:05:02.185Z,11.15
2023-03-04T22:09:04.416Z,11.35
2023-03-04T22:13:09.378Z,10.65
2023-03-04T22:17:11.583Z,11.73
2023-03-04T22:21:15.969Z,11.35
2023-03-04T22:25:17.979Z,11.45
2023-03-04T22:29:19.984Z,11.10
2023-03-04T22:33:23.175Z,13.30
2023-03-04T22:37:25.211Z,11.70
2023-03-04T22:41:27.270Z,11.20
2023-03-04T22:45:30.723Z,10.52
2023-03-04T22:49:33.258Z,11.15
2023-03-04T22:53:35.952Z,11.02
2023-03-04T22:57:38.179Z,10.73
2023-03-04T23:01:40.634Z,10.98
2023-03-04T23:05:42.653Z,10.20
2023-03-04T23:09:44.710Z,10.05
2023-03-04T23:13:48.407Z,13.73
2023-03-04T23:17:50.883Z,13.10
2023-03-04T23:21:52.904Z,12.48
2023-03-04T23:25:54.881Z,9.48
2023-03-04T23:29:56.885Z,8.65
2023-03-04T23:34:00.074Z,7.45
2023-03-04T23:38:02.084Z,7.10
2023-03-04T23:42:04.264Z,6.57
2023-03-04T23:46:09.085Z,6.00
2023-03-04T23:50:13.665Z,5.57
2023-03-04T23:54:15.756Z,5.20
2023-03-04T23:58:17.745Z,4.15
